Superheroes vs Villains 2017

# of participants: 310# of finishers: 243last updated: 10/7/2017 8:08 pm
Result Questions?
Award Bib First Name Last Name Elapsed Time Pace Category 5K Rank Gender Gen Rank Age Age Group AG Rank Youtube
2239 TAMMI DELENA 21:14 6:50/mile 5K 1 F 1 44 40-44 1
3920 ADDISON TILLEY 21:23 6:53/mile 5K 2 F 2 11 11-14 1 View Video
218 TAYLOR CUSHENBERRY 24:00 7:43/mile 5K 9 F 3 13 11-14 2 View Video
5022 MADELYN GAHAN 24:20 7:49/mile 5K 11 F 4 36 35-39 1 View Video
2151 JAIME WHITE 26:03 8:23/mile 5K 15 F 5 35 35-39 2 View Video
2070 PAMELA HATFIELD 26:04 8:23/mile 5K 16 F 6 28 25-29 1 View Video
2005 BETH ARNDT 26:23 8:29/mile 5K 17 F 7 30 30-34 1 View Video
2003 CONNIE ALLEN 26:23 8:29/mile 5K 19 F 8 38 35-39 3 View Video
2177 NANEA TRASK 26:24 8:29/mile 5K 20 F 9 10 1-10 1 View Video
2176 JANA TRASK 26:24 8:30/mile 5K 21 F 10 45 45-49 1 View Video
2165 MELISSA HUFF 26:30 8:31/mile 5K 22 F 11 46 45-49 2 View Video
2143 DARA TOOLE 26:30 8:32/mile 5K 23 F 12 42 40-44 2 View Video
2106 DELLA MCDONOUGH 26:53 8:39/mile 5K 24 F 13 52 50-54 1 View Video
2067 NINA HARRIS 27:04 8:42/mile 5K 27 F 14 13 11-14 3 View Video
3921 ASHLEY THURMAN-MCGRAW 27:49 8:57/mile 5K 29 F 15 40 40-44 3 View Video
2104 JENNIFER MAUDE 28:00 9:00/mile 5K 30 F 16 43 40-44 4 View Video
5011 TATIANA FERNANDEZ 29:15 9:24/mile 5K 33 F 17 48 45-49 3 View Video
2110 CYNTHIA MIMS 29:29 9:29/mile 5K 34 F 18 25 25-29 2 View Video
5141 KIMBERLY PARKER 29:39 9:32/mile 5K 35 F 19 45 45-49 4 View Video
2173 ALISHA RICHEY 30:41 9:52/mile 5K 36 F 20 36 35-39 4 View Video
5042 ASHLEY JOINER 30:47 9:54/mile 5K 37 F 21 34 30-34 2 View Video
2188 CAROLYN SALVADOR 31:38 10:10/mile 5K 39 F 22 52 50-54 2 View Video
2079 SARRAH JANUS 31:46 10:13/mile 5K 41 F 23 40 40-44 5 View Video
2015 CASSANDRA CELESTE 31:47 10:14/mile 5K 42 F 24 32 30-34 3 View Video
2133 JAMI SMITH 32:00 10:18/mile 5K 43 F 25 39 35-39 5 View Video
2190 KATHY OTIS 32:11 10:21/mile 5K 44 F 26 48 45-49 5 View Video
2047 MARNA FRIEDMAN 32:12 10:22/mile 5K 45 F 27 50 50-54 3 View Video
2155 DOMINIQUE BOONACKER 32:23 10:25/mile 5K 47 F 28 26 25-29 3 View Video
2228 ERYNN MOZIER 32:32 10:28/mile 5K 48 F 29 47 45-49 6 View Video
2052 BRANDI GILBERT 32:50 10:34/mile 5K 50 F 30 33 30-34 4 View Video
217 DEBBY HYBART 32:59 10:37/mile 5K 52 F 31 51 50-54 4 View Video
2068 CRISTINA HARTMAN 33:03 10:38/mile 5K 54 F 32 39 35-39 6 View Video
2145 CADENCE TYLER 33:03 10:38/mile 5K 55 F 33 13 11-14 4 View Video
2137 LAUREN SPIVEY 33:05 10:39/mile 5K 56 F 34 14 11-14 5 View Video
2191 BETHANY GEORGE 33:09 10:40/mile 5K 57 F 35 45 45-49 7 View Video
2117 KIM PALMER 33:11 10:40/mile 5K 58 F 36 54 50-54 5 View Video
2026 CYNDI DRAGU 33:19 10:43/mile 5K 61 F 37 34 30-34 5 View Video
2136 KRISTA SPIVEY 33:27 10:46/mile 5K 62 F 38 44 40-44 6 View Video
2044 ANGELA FRANKS 33:33 10:48/mile 5K 64 F 39 48 45-49 8 View Video
2126 DANIELLE ROUSSEAU 33:42 10:50/mile 5K 66 F 40 23 20-24 1 View Video
2071 DONNA HERBST 33:48 10:52/mile 5K 67 F 41 56 55-59 1 View Video
2116 ANAMARIA OSPINA-GREENBERGER 33:56 10:55/mile 5K 68 F 42 47 45-49 9 View Video
3919 DANIELLE ZEMBER 34:13 11:00/mile 5K 69 F 43 12 11-14 6 View Video
2153 MYNDI YATES 34:21 11:03/mile 5K 70 F 44 42 40-44 7 View Video
2100 KATE LUCKETT 34:22 11:03/mile 5K 71 F 45 12 11-14 7 View Video
5119 AVERY MAGATO 34:39 11:09/mile 5K 73 F 46 10 1-10 2 View Video
5126 BETSY MAGATO 34:39 11:09/mile 5K 74 F 47 41 40-44 8 View Video
2192 SHEENA VIRJI 35:24 11:23/mile 5K 75 F 48 41 40-44 9 View Video
2138 VALERIE STAFFEY 35:32 11:26/mile 5K 77 F 49 36 35-39 7 View Video
2101 CARLY LYON 35:33 11:26/mile 5K 78 F 50 36 35-39 8 View Video
3935 LAILA NIXON 35:47 11:31/mile 5K 79 F 51 10 1-10 3 View Video
3880 ALEGRIA NIXON 35:52 11:32/mile 5K 80 F 52 40 40-44 10 View Video
2085 MAYA JENSEN 36:00 11:35/mile 5K 81 F 53 12 11-14 8 View Video
2080 MANDY JENKINS 36:09 11:38/mile 5K 84 F 54 38 35-39 9 View Video
2245 WENDY HANSON 36:14 11:39/mile 5K 87 F 55 45 45-49 10 View Video
2149 JENNIFER WARNER 36:23 11:42/mile 5K 88 F 56 41 40-44 11 View Video
2025 MEAGAN DOUGHTY 36:24 11:43/mile 5K 89 F 57 25 25-29 4 View Video
2142 STACY THOMPSON 36:28 11:44/mile 5K 90 F 58 44 40-44 12 View Video
2060 DONNA GORDON 36:31 11:45/mile 5K 91 F 59 25 25-29 5 View Video
3922 JENNIFER SAMPSON 36:45 11:49/mile 5K 92 F 60 36 35-39 10 View Video
2049 ALYSSA GIBSON 36:49 11:51/mile 5K 93 F 61 25 25-29 6 View Video
2147 CHRISSY WALKER 36:49 11:51/mile 5K 94 F 62 19 15-19 1 View Video
2175 ASHAKI ROBBINS 37:05 11:56/mile 5K 95 F 63 39 35-39 11 View Video
2152 KINETA WILSON 37:06 11:56/mile 5K 96 F 64 31 30-34 6 View Video
2013 CHLOE BUCHAN 37:14 11:59/mile 5K 97 F 65 13 11-14 9 View Video
2115 DEVON NEWSOME 37:41 12:07/mile 5K 98 F 66 24 20-24 2 View Video
2240 ANABELLA DENTE 37:53 12:11/mile 5K 100 F 67 9 1-10 4 View Video
2247 KATIE HELTON 38:00 12:14/mile 5K 101 F 68 36 35-39 12 View Video
2006 STACY BAASCH 38:01 12:14/mile 5K 103 F 69 44 40-44 13 View Video
2064 DEANNA HAMBY 38:08 12:16/mile 5K 105 F 70 41 40-44 14 View Video
2088 SHILOH JONES 38:31 12:23/mile 5K 107 F 71 37 35-39 13 View Video
2053 CHRISTINE GILBERT 38:53 12:31/mile 5K 108 F 72 44 40-44 15 View Video
5085 MELONIE CAMPBELL 39:04 12:34/mile 5K 109 F 73 50 50-54 6 View Video
213 ERIKA PORTER 39:04 12:34/mile 5K 110 F 74 42 40-44 16 View Video
2243 ELLISE HANSON 39:10 12:36/mile 5K 111 F 75 13 11-14 10 View Video
5058 CAMDYN GEORGE 39:10 12:36/mile 5K 112 F 76 12 11-14 11 View Video
2186 TARA LEGGETT 39:43 12:47/mile 5K 113 F 77 47 45-49 11 View Video
2163 MISCHELLE GOUDREAU 39:47 12:48/mile 5K 114 F 78 43 40-44 17 View Video
2124 STAR RICE 40:11 12:56/mile 5K 115 F 79 44 40-44 18 View Video
2055 LYNN GILLELAND 40:15 12:57/mile 5K 116 F 80 58 55-59 2 View Video
2035 AMANDA ENGEL 40:24 13:00/mile 5K 117 F 81 36 35-39 14 View Video
2229 MELISSA CALLARI 40:29 13:01/mile 5K 119 F 82 46 45-49 12 View Video
2089 SUNNY L. LYNETTE KEMP 40:32 13:02/mile 5K 121 F 83 45 45-49 13 View Video
2107 DANIELLE MEKULSIA 40:36 13:04/mile 5K 122 F 84 39 35-39 15 View Video
2148 NINA WARE 40:46 13:07/mile 5K 125 F 85 56 55-59 3 View Video
3969 APRIL JOKSIMOVIC 40:59 13:11/mile 5K 126 F 86 37 35-39 16 View Video
2094 ANDIE LOCCISANO 41:02 13:12/mile 5K 127 F 87 27 25-29 7 View Video
57 PHYLLIS INGRAM 41:24 13:19/mile 5K 129 F 88 44 40-44 19 View Video
2134 MICHAEL SMITH 41:27 13:20/mile 5K 132 F 89 48 45-49 14 View Video
5145 DAWN BENNETT 41:32 13:22/mile 5K 133 F 90 47 45-49 15 View Video
2181 ANGEL BARNES 41:33 13:22/mile 5K 134 F 91 45 45-49 16 View Video
3946 ELLA NIXON 41:35 13:23/mile 5K 136 F 92 7 1-10 5 View Video
2092 LISA KUBES 41:46 13:26/mile 5K 137 F 93 46 45-49 17 View Video
2130 TERRI SEAGRAVES 41:47 13:26/mile 5K 138 F 94 52 50-54 7 View Video
2174 LY ARCHER 41:47 13:27/mile 5K 139 F 95 22 20-24 3 View Video
2169 VICTORIA LAGUITAN 42:10 13:34/mile 5K 142 F 96 9 1-10 6 View Video
5125 CAMMY PRICKETT 42:20 13:37/mile 5K 144 F 97 15 15-19 2 View Video
2168 KIM LAGUITAN 42:32 13:41/mile 5K 146 F 98 44 40-44 20 View Video
2000 LORIN ACHEY 42:47 13:46/mile 5K 147 F 99 26 25-29 8 View Video
2097 KAT LOPEZ 42:47 13:46/mile 5K 148 F 100 37 35-39 17 View Video